createdAt,value
2019-03-11T00:00:43.093Z,7.90
2019-03-11T00:03:12.032Z,7.90
2019-03-11T00:05:41.065Z,7.90
2019-03-11T00:08:10.013Z,7.80
2019-03-11T00:10:39.030Z,7.90
2019-03-11T00:13:08.149Z,7.90
2019-03-11T00:15:37.391Z,7.80
2019-03-11T00:18:06.612Z,7.80
2019-03-11T00:20:35.566Z,7.80
2019-03-11T00:23:04.532Z,7.80
2019-03-11T00:25:33.459Z,7.70
2019-03-11T00:28:02.606Z,7.80
2019-03-11T00:30:31.553Z,7.70
2019-03-11T00:33:00.594Z,7.70
2019-03-11T00:35:30.557Z,7.60
2019-03-11T00:37:59.585Z,7.60
2019-03-11T00:40:28.699Z,7.60
2019-03-11T00:42:57.713Z,7.60
2019-03-11T00:45:26.819Z,7.60
2019-03-11T00:48:01.925Z,7.60
2019-03-11T00:50:26.763Z,7.50
2019-03-11T00:52:55.897Z,7.50
2019-03-11T00:55:24.846Z,7.40
2019-03-11T00:57:53.990Z,7.50
2019-03-11T01:00:28.752Z,7.40
2019-03-11T01:02:57.726Z,7.40
2019-03-11T01:05:26.814Z,7.40
2019-03-11T01:07:55.952Z,7.30
2019-03-11T01:10:25.425Z,7.30
2019-03-11T01:12:54.513Z,7.30
2019-03-11T01:15:23.750Z,7.30
2019-03-11T01:17:52.788Z,7.20
2019-03-11T01:20:21.810Z,7.10
2019-03-11T01:22:50.835Z,7.20
2019-03-11T01:25:20.006Z,7.10
2019-03-11T01:27:48.963Z,7.10
2019-03-11T01:30:18.456Z,7.10
2019-03-11T01:32:47.472Z,7.00
2019-03-11T01:35:16.442Z,7.00
2019-03-11T01:37:45.543Z,7.00
2019-03-11T01:40:18.399Z,7.00
2019-03-11T01:42:47.576Z,7.00
2019-03-11T01:45:17.808Z,6.90
2019-03-11T01:47:46.894Z,6.90
2019-03-11T01:50:16.546Z,6.90
2019-03-11T01:52:45.659Z,6.90
2019-03-11T01:55:14.870Z,6.90
2019-03-11T01:57:44.219Z,6.90
2019-03-11T02:00:18.028Z,6.80
2019-03-11T02:02:47.013Z,6.70
2019-03-11T02:05:16.052Z,6.70
2019-03-11T02:07:45.074Z,6.70
2019-03-11T02:10:19.030Z,6.70
2019-03-11T02:12:48.075Z,6.70
2019-03-11T02:15:18.332Z,6.60
2019-03-11T02:17:47.325Z,6.60
2019-03-11T02:20:17.609Z,6.50
2019-03-11T02:22:46.726Z,6.60
2019-03-11T02:25:16.046Z,6.60
2019-03-11T02:27:45.022Z,6.50
2019-03-11T02:30:18.222Z,6.50
2019-03-11T02:32:47.774Z,6.50
2019-03-11T02:35:28.234Z,6.40
2019-03-11T02:37:57.858Z,6.40
2019-03-11T02:40:27.450Z,6.30
2019-03-11T02:42:56.496Z,6.30
2019-03-11T02:45:25.746Z,6.20
2019-03-11T02:47:54.770Z,6.20
2019-03-11T02:50:23.911Z,6.20
2019-03-11T02:52:56.141Z,6.20
2019-03-11T02:55:25.107Z,6.20
2019-03-11T02:57:54.062Z,6.20
2019-03-11T03:00:23.079Z,6.20
2019-03-11T03:03:11.534Z,6.20
2019-03-11T03:05:48.140Z,6.20
2019-03-11T03:08:17.152Z,6.10
2019-03-11T03:10:46.149Z,6.10
2019-03-11T03:13:15.145Z,6.10
2019-03-11T03:15:44.165Z,6.10
2019-03-11T03:18:13.152Z,6.10
2019-03-11T03:20:42.225Z,6.10
2019-03-11T03:23:11.264Z,6.00
2019-03-11T03:25:40.256Z,6.00
2019-03-11T03:28:09.375Z,6.00
2019-03-11T03:30:38.430Z,6.00
2019-03-11T03:33:12.113Z,6.00
2019-03-11T03:35:41.118Z,6.00
2019-03-11T03:38:11.480Z,6.00
2019-03-11T03:40:40.529Z,6.10
2019-03-11T03:43:09.707Z,6.10
2019-03-11T03:45:40.793Z,6.10
2019-03-11T03:48:09.842Z,6.20
2019-03-11T03:50:40.015Z,6.20
2019-03-11T03:53:09.400Z,6.20
2019-03-11T03:55:38.424Z,6.20
2019-03-11T03:58:07.559Z,6.30
2019-03-11T04:00:36.739Z,6.30
2019-03-11T04:03:05.825Z,6.30
2019-03-11T04:05:35.057Z,6.30
2019-03-11T04:08:04.362Z,6.30
2019-03-11T04:10:33.508Z,6.30
2019-03-11T04:13:02.566Z,6.30
2019-03-11T04:15:31.537Z,6.30
2019-03-11T04:18:00.569Z,6.30
2019-03-11T04:20:29.918Z,6.40
2019-03-11T04:22:59.692Z,6.50
2019-03-11T04:25:30.052Z,6.50
2019-03-11T04:27:59.156Z,6.60
2019-03-11T04:30:28.898Z,6.60
2019-03-11T04:32:58.084Z,6.50
2019-03-11T04:35:27.064Z,6.60
2019-03-11T04:37:56.035Z,6.60
2019-03-11T04:40:25.079Z,6.60
2019-03-11T04:42:58.267Z,6.60
2019-03-11T04:45:27.302Z,6.60
2019-03-11T04:47:57.470Z,6.70
2019-03-11T04:50:26.510Z,6.60
2019-03-11T04:52:57.100Z,6.70
2019-03-11T04:55:26.123Z,6.70
2019-03-11T04:57:56.044Z,6.70
2019-03-11T05:00:32.732Z,6.70
2019-03-11T05:03:01.708Z,6.70
2019-03-11T05:05:30.925Z,6.70
2019-03-11T05:07:59.933Z,6.70
2019-03-11T05:10:28.882Z,6.70
2019-03-11T05:12:57.862Z,6.70
2019-03-11T05:15:26.901Z,6.60
2019-03-11T05:17:56.186Z,6.60
2019-03-11T05:20:25.239Z,6.50
2019-03-11T05:22:55.012Z,6.60
2019-03-11T05:25:24.451Z,6.50
2019-03-11T05:27:53.505Z,6.50
2019-03-11T05:30:22.650Z,6.50
2019-03-11T05:32:53.191Z,6.40
2019-03-11T05:35:22.245Z,6.30
2019-03-11T05:37:51.209Z,6.30
2019-03-11T05:40:21.385Z,6.30
2019-03-11T05:42:50.359Z,6.30
2019-03-11T05:45:20.071Z,6.30
2019-03-11T05:47:49.144Z,6.30
2019-03-11T05:50:18.998Z,6.30
2019-03-11T05:52:48.149Z,6.40
2019-03-11T05:55:17.237Z,6.40
2019-03-11T05:57:46.408Z,6.50
2019-03-11T06:00:20.238Z,6.40
2019-03-11T06:02:49.227Z,6.40
2019-03-11T06:05:18.413Z,6.40
2019-03-11T06:07:47.447Z,6.50
2019-03-11T06:10:16.645Z,6.60
2019-03-11T06:12:45.755Z,6.50
2019-03-11T06:15:15.655Z,6.60
2019-03-11T06:17:45.339Z,6.70
2019-03-11T06:20:31.742Z,6.70
2019-03-11T06:23:02.467Z,6.70
2019-03-11T06:25:31.430Z,6.70
2019-03-11T06:28:01.121Z,6.80
2019-03-11T06:30:30.175Z,6.80
2019-03-11T06:32:59.185Z,6.80
2019-03-11T06:35:28.286Z,6.80
2019-03-11T06:37:57.378Z,6.80
2019-03-11T06:40:26.450Z,6.80
2019-03-11T06:42:55.517Z,6.80
2019-03-11T06:45:24.578Z,6.80
2019-03-11T06:47:53.606Z,6.80
2019-03-11T06:50:22.719Z,6.70
2019-03-11T06:52:51.986Z,6.80
2019-03-11T06:55:21.112Z,6.80
2019-03-11T06:57:50.188Z,6.90
2019-03-11T07:00:22.726Z,6.90
2019-03-11T07:02:51.766Z,7.00
2019-03-11T07:05:21.288Z,7.00
2019-03-11T07:07:50.330Z,7.00
2019-03-11T07:10:19.462Z,7.00
2019-03-11T07:12:48.397Z,7.10
2019-03-11T07:15:17.501Z,7.30
2019-03-11T07:17:46.594Z,7.40
2019-03-11T07:20:16.915Z,7.40
2019-03-11T07:22:46.121Z,7.40
2019-03-11T07:25:15.227Z,7.20
2019-03-11T07:27:44.725Z,7.00
2019-03-11T07:30:18.765Z,6.90
2019-03-11T07:32:48.002Z,6.50
2019-03-11T07:35:17.152Z,6.60
2019-03-11T07:37:46.408Z,6.50
2019-03-11T07:40:28.435Z,6.50
2019-03-11T07:42:47.782Z,6.50
2019-03-11T07:45:17.379Z,6.50
2019-03-11T07:47:46.535Z,6.40
2019-03-11T07:50:16.719Z,6.20
2019-03-11T07:52:45.754Z,6.40
2019-03-11T07:55:15.145Z,7.00
2019-03-11T07:57:44.235Z,7.00
2019-03-11T08:00:18.872Z,7.00
2019-03-11T08:02:47.926Z,6.80
2019-03-11T08:05:17.012Z,6.70
2019-03-11T08:07:46.131Z,6.50
2019-03-11T08:10:20.557Z,6.40
2019-03-11T08:12:49.485Z,6.20
2019-03-11T08:15:18.624Z,6.20
2019-03-11T08:17:47.750Z,6.20
2019-03-11T08:20:17.769Z,6.10
2019-03-11T08:22:46.853Z,5.60
2019-03-11T08:25:16.543Z,4.80
2019-03-11T08:27:45.628Z,4.30
2019-03-11T08:30:18.994Z,3.70
2019-03-11T08:32:48.069Z,3.10
2019-03-11T08:35:17.175Z,2.70
2019-03-11T08:37:46.441Z,2.60
2019-03-11T08:40:16.705Z,2.60
2019-03-11T08:42:45.920Z,2.60
2019-03-11T08:45:16.314Z,2.60
2019-03-11T08:47:45.410Z,2.60
2019-03-11T08:50:18.065Z,2.70
2019-03-11T08:52:47.134Z,2.70
2019-03-11T08:55:16.207Z,2.90
2019-03-11T08:57:45.282Z,3.00
2019-03-11T09:00:22.879Z,3.00
2019-03-11T09:02:52.326Z,3.00
2019-03-11T09:05:21.365Z,3.00
2019-03-11T09:07:50.421Z,3.00
2019-03-11T09:10:19.937Z,3.10
2019-03-11T09:12:48.966Z,3.20
2019-03-11T09:15:19.354Z,3.30
2019-03-11T09:17:49.192Z,3.40
2019-03-11T09:20:18.896Z,3.50
2019-03-11T09:22:47.981Z,3.50
2019-03-11T09:25:22.818Z,3.60
2019-03-11T09:27:51.993Z,3.60
2019-03-11T09:30:24.524Z,3.70
2019-03-11T09:32:53.775Z,3.70
2019-03-11T09:35:22.789Z,3.70
2019-03-11T09:37:51.896Z,3.70
2019-03-11T09:40:21.595Z,3.80
2019-03-11T09:42:50.740Z,4.00
2019-03-11T09:45:20.447Z,4.10
2019-03-11T09:47:49.659Z,4.30
2019-03-11T09:50:19.038Z,4.50
2019-03-11T09:52:48.125Z,4.70
2019-03-11T09:55:21.504Z,4.80
2019-03-11T09:57:50.533Z,5.00
2019-03-11T10:00:24.934Z,5.10
2019-03-11T10:02:54.065Z,5.10
2019-03-11T10:05:23.077Z,5.20
2019-03-11T10:07:52.536Z,5.30
2019-03-11T10:10:28.762Z,5.30
2019-03-11T10:12:57.844Z,5.40
2019-03-11T10:15:26.998Z,5.50
2019-03-11T10:17:56.065Z,5.60
2019-03-11T10:20:25.171Z,5.60
2019-03-11T10:22:54.442Z,5.60
2019-03-11T10:25:23.535Z,5.60
2019-03-11T10:27:53.100Z,5.60
2019-03-11T10:30:24.106Z,5.60
2019-03-11T10:32:53.138Z,5.70
2019-03-11T10:35:37.393Z,5.70
2019-03-11T10:37:52.954Z,5.80
2019-03-11T10:40:23.371Z,5.90
2019-03-11T10:42:52.545Z,5.90
2019-03-11T10:45:30.384Z,6.10
2019-03-11T10:47:52.738Z,6.10
2019-03-11T10:50:22.228Z,6.20
2019-03-11T10:52:51.247Z,6.30
2019-03-11T10:55:22.038Z,6.40
2019-03-11T10:57:51.108Z,6.50
2019-03-11T11:00:28.155Z,6.50
2019-03-11T11:02:57.461Z,6.40
2019-03-11T11:05:26.680Z,6.30
2019-03-11T11:07:55.826Z,6.00
2019-03-11T11:10:25.166Z,5.40
2019-03-11T11:12:54.316Z,4.80
2019-03-11T11:15:31.481Z,4.50
2019-03-11T11:18:00.556Z,4.10
2019-03-11T11:20:29.582Z,3.70
2019-03-11T11:22:58.584Z,3.50
2019-03-11T11:25:30.863Z,3.20
2019-03-11T11:27:59.949Z,3.10
2019-03-11T11:30:30.164Z,3.00
2019-03-11T11:32:59.261Z,2.80
2019-03-11T11:35:28.555Z,2.80
2019-03-11T11:37:57.694Z,2.70
2019-03-11T11:40:30.835Z,2.80
2019-03-11T11:42:59.778Z,2.80
2019-03-11T11:45:31.166Z,2.80
2019-03-11T11:48:00.492Z,2.90
2019-03-11T11:50:29.695Z,2.90
2019-03-11T11:52:58.955Z,3.00
2019-03-11T11:55:28.213Z,3.00
2019-03-11T11:57:57.357Z,3.10
2019-03-11T12:00:29.073Z,3.10
2019-03-11T12:02:58.402Z,3.20
2019-03-11T12:05:27.582Z,3.00
2019-03-11T12:07:56.714Z,3.00
2019-03-11T12:10:26.809Z,3.00
2019-03-11T12:12:56.362Z,2.90
2019-03-11T12:15:25.554Z,2.90
2019-03-11T12:17:54.645Z,3.00
2019-03-11T12:20:28.516Z,3.00
2019-03-11T12:22:57.707Z,2.90
2019-03-11T12:25:27.013Z,2.90
2019-03-11T12:27:58.059Z,2.90
2019-03-11T12:30:28.519Z,2.90
2019-03-11T12:32:57.745Z,3.00
2019-03-11T12:35:27.129Z,2.90
2019-03-11T12:37:56.713Z,3.00
2019-03-11T12:40:25.963Z,3.00
2019-03-11T12:42:55.100Z,3.00
2019-03-11T12:45:27.197Z,3.10
2019-03-11T12:47:56.252Z,3.10
2019-03-11T12:50:30.163Z,3.20
2019-03-11T12:52:59.209Z,3.30
2019-03-11T12:55:28.352Z,3.40
2019-03-11T12:57:57.460Z,3.50
2019-03-11T13:00:26.660Z,3.70
2019-03-11T13:02:55.790Z,3.70
2019-03-11T13:05:24.947Z,3.80
2019-03-11T13:07:54.156Z,3.90
2019-03-11T13:10:25.400Z,4.00
2019-03-11T13:12:54.433Z,4.10
2019-03-11T13:15:23.697Z,4.10
2019-03-11T13:17:52.703Z,4.20
2019-03-11T13:20:37.611Z,4.30
2019-03-11T13:23:06.632Z,4.30
2019-03-11T13:25:35.849Z,4.30
2019-03-11T13:28:05.059Z,4.30
2019-03-11T13:30:34.236Z,4.30
2019-03-11T13:33:03.437Z,4.30
2019-03-11T13:35:32.707Z,4.40
2019-03-11T13:38:01.705Z,4.30
2019-03-11T13:40:30.732Z,4.40
2019-03-11T13:42:59.672Z,4.40
2019-03-11T13:45:28.875Z,4.50
2019-03-11T13:47:57.941Z,4.50
2019-03-11T13:50:27.182Z,4.50
2019-03-11T13:52:56.408Z,4.60
2019-03-11T13:55:25.514Z,4.70
2019-03-11T13:57:54.608Z,4.80
2019-03-11T14:00:23.774Z,4.80
2019-03-11T14:02:52.887Z,4.90
2019-03-11T14:05:21.874Z,5.00
2019-03-11T14:07:50.894Z,5.10
2019-03-11T14:10:20.076Z,5.20
2019-03-11T14:12:49.090Z,5.30
2019-03-11T14:15:20.069Z,5.30
2019-03-11T14:17:49.588Z,5.30
2019-03-11T14:20:18.789Z,5.30
2019-03-11T14:22:47.894Z,5.40
2019-03-11T14:25:17.209Z,5.40
2019-03-11T14:27:46.345Z,5.40
2019-03-11T14:30:19.923Z,5.50
2019-03-11T14:32:49.146Z,5.60
2019-03-11T14:35:18.378Z,5.70
2019-03-11T14:37:47.486Z,5.70
2019-03-11T14:40:20.430Z,5.90
2019-03-11T14:42:50.191Z,6.00
2019-03-11T14:45:20.334Z,6.10
2019-03-11T14:47:49.465Z,6.20
2019-03-11T14:50:18.949Z,6.20
2019-03-11T14:52:48.196Z,6.30
2019-03-11T14:55:17.340Z,6.40
2019-03-11T14:57:46.400Z,6.40
2019-03-11T15:00:22.043Z,6.50
2019-03-11T15:02:51.088Z,6.50
2019-03-11T15:05:21.007Z,6.30
2019-03-11T15:07:50.469Z,6.30
2019-03-11T15:10:20.528Z,6.30
2019-03-11T15:12:50.161Z,6.20
2019-03-11T15:15:23.322Z,6.20
2019-03-11T15:17:52.670Z,6.20
2019-03-11T15:20:22.049Z,6.10
2019-03-11T15:22:51.139Z,6.10
2019-03-11T15:25:20.921Z,6.00
2019-03-11T15:27:50.158Z,6.10
2019-03-11T15:30:20.548Z,6.20
2019-03-11T15:32:49.793Z,6.20
2019-03-11T15:35:20.581Z,6.10
2019-03-11T15:37:49.779Z,6.10
2019-03-11T15:40:19.279Z,6.10
2019-03-11T15:42:48.912Z,6.10
2019-03-11T15:45:19.175Z,6.20
2019-03-11T15:47:48.326Z,6.20
2019-03-11T15:50:29.177Z,6.30
2019-03-11T15:52:58.258Z,6.40
2019-03-11T15:55:27.247Z,6.20
2019-03-11T15:57:56.404Z,6.10
2019-03-11T16:00:25.499Z,6.10
2019-03-11T16:02:54.507Z,6.20
2019-03-11T16:05:24.509Z,6.30
2019-03-11T16:07:53.707Z,6.30
2019-03-11T16:10:23.079Z,6.30
2019-03-11T16:12:52.162Z,6.30
2019-03-11T16:15:21.390Z,6.40
2019-03-11T16:17:50.529Z,6.40
2019-03-11T16:20:21.146Z,6.50
2019-03-11T16:22:50.540Z,6.50
2019-03-11T16:25:19.640Z,6.50
2019-03-11T16:27:48.630Z,6.50
2019-03-11T16:30:20.200Z,6.30
2019-03-11T16:32:59.325Z,6.30
2019-03-11T16:35:21.393Z,6.30
2019-03-11T16:37:50.502Z,6.20
2019-03-11T16:40:19.565Z,6.00
2019-03-11T16:42:48.696Z,5.80
2019-03-11T16:45:19.337Z,5.70
2019-03-11T16:47:48.724Z,5.60
2019-03-11T16:50:21.780Z,5.60
2019-03-11T16:52:50.711Z,5.50
2019-03-11T16:55:32.349Z,5.60
2019-03-11T16:58:01.664Z,5.60
2019-03-11T17:00:35.219Z,5.50
2019-03-11T17:03:04.539Z,5.30
2019-03-11T17:05:33.677Z,5.30
2019-03-11T17:08:02.765Z,5.20
2019-03-11T17:10:32.361Z,5.30
2019-03-11T17:13:01.335Z,5.20
2019-03-11T17:15:30.505Z,5.20
2019-03-11T17:17:59.724Z,5.10
2019-03-11T17:20:28.906Z,5.20
2019-03-11T17:22:58.204Z,5.10
2019-03-11T17:25:27.134Z,5.10
2019-03-11T17:27:56.335Z,5.10
2019-03-11T17:30:26.737Z,5.00
2019-03-11T17:32:56.114Z,5.00
2019-03-11T17:35:25.295Z,4.90
2019-03-11T17:37:54.544Z,5.00
2019-03-11T17:40:25.440Z,5.00
2019-03-11T17:42:54.689Z,4.90
2019-03-11T17:45:24.208Z,4.90
2019-03-11T17:47:53.249Z,5.00
2019-03-11T17:50:23.457Z,5.00
2019-03-11T17:52:52.769Z,5.10
2019-03-11T17:55:22.277Z,5.10
2019-03-11T17:57:51.256Z,5.00
2019-03-11T18:00:25.746Z,4.90
2019-03-11T18:02:55.433Z,4.90
2019-03-11T18:05:24.686Z,4.70
2019-03-11T18:07:53.736Z,4.60
2019-03-11T18:10:22.803Z,4.60
2019-03-11T18:12:51.876Z,4.50
2019-03-11T18:15:21.073Z,4.50
2019-03-11T18:17:50.219Z,4.50
2019-03-11T18:20:20.229Z,4.50
2019-03-11T18:22:49.598Z,4.60
2019-03-11T18:25:19.707Z,4.60
2019-03-11T18:27:48.825Z,4.60
2019-03-11T18:30:23.425Z,4.50
2019-03-11T18:32:52.798Z,4.50
2019-03-11T18:35:21.958Z,4.40
2019-03-11T18:37:59.580Z,4.40
2019-03-11T18:40:21.889Z,4.40
2019-03-11T18:42:50.960Z,4.40
2019-03-11T18:45:20.088Z,4.40
2019-03-11T18:47:49.156Z,4.30
2019-03-11T18:50:24.022Z,4.40
2019-03-11T18:52:53.350Z,4.30
2019-03-11T18:55:22.545Z,4.20
2019-03-11T18:57:51.588Z,4.20
2019-03-11T19:00:24.392Z,4.30
2019-03-11T19:02:53.463Z,4.20
2019-03-11T19:05:24.012Z,4.10
2019-03-11T19:07:55.055Z,4.10
2019-03-11T19:10:24.081Z,4.10
2019-03-11T19:12:53.142Z,4.00
2019-03-11T19:15:23.508Z,4.00
2019-03-11T19:17:52.751Z,3.90
2019-03-11T19:20:23.108Z,4.00
2019-03-11T19:22:52.570Z,4.00
2019-03-11T19:25:21.811Z,3.90
2019-03-11T19:27:50.945Z,3.90
2019-03-11T19:30:21.527Z,3.90
2019-03-11T19:32:50.821Z,3.80
2019-03-11T19:35:20.517Z,3.80
2019-03-11T19:37:49.813Z,3.80
2019-03-11T19:40:23.973Z,3.90
2019-03-11T19:42:53.417Z,3.80
2019-03-11T19:45:22.680Z,3.90
2019-03-11T19:47:53.438Z,3.80
2019-03-11T19:50:22.697Z,3.80
2019-03-11T19:52:58.288Z,3.70
2019-03-11T19:55:23.041Z,3.70
2019-03-11T19:57:52.428Z,3.80
2019-03-11T20:00:22.957Z,3.70
2019-03-11T20:02:52.358Z,3.70
2019-03-11T20:05:29.522Z,3.70
2019-03-11T20:07:58.869Z,3.80
2019-03-11T20:10:28.334Z,3.70
2019-03-11T20:12:57.557Z,3.70
2019-03-11T20:15:26.715Z,3.70
2019-03-11T20:17:55.826Z,3.70
2019-03-11T20:20:25.046Z,3.70
2019-03-11T20:22:54.532Z,3.60
2019-03-11T20:25:37.477Z,3.70
2019-03-11T20:28:06.675Z,3.70
2019-03-11T20:30:36.195Z,3.70
2019-03-11T20:33:05.302Z,3.70
2019-03-11T20:35:34.712Z,3.70
2019-03-11T20:38:03.938Z,3.80
2019-03-11T20:40:33.005Z,3.80
2019-03-11T20:43:02.332Z,3.80
2019-03-11T20:45:31.338Z,3.80
2019-03-11T20:48:00.557Z,3.80
2019-03-11T20:50:41.405Z,3.80
2019-03-11T20:53:00.257Z,3.80
2019-03-11T20:55:29.419Z,3.80
2019-03-11T20:57:58.582Z,3.80
2019-03-11T21:00:28.234Z,3.80
2019-03-11T21:02:59.888Z,3.70
2019-03-11T21:05:40.108Z,3.70
2019-03-11T21:08:09.325Z,3.70
2019-03-11T21:10:38.358Z,3.70
2019-03-11T21:13:07.679Z,3.70
2019-03-11T21:15:36.857Z,3.70
2019-03-11T21:18:05.989Z,3.60
2019-03-11T21:20:35.092Z,3.60
2019-03-11T21:23:04.563Z,3.60
2019-03-11T21:25:33.732Z,3.60
2019-03-11T21:28:02.811Z,3.60
2019-03-11T21:30:32.098Z,3.70
2019-03-11T21:33:01.859Z,3.70
2019-03-11T21:35:31.140Z,3.70
2019-03-11T21:38:00.155Z,3.70
2019-03-11T21:40:29.168Z,3.80
2019-03-11T21:42:58.305Z,3.80
2019-03-11T21:45:33.901Z,3.80
2019-03-11T21:47:58.102Z,3.80
2019-03-11T21:50:28.302Z,3.80
2019-03-11T21:52:57.417Z,3.80
2019-03-11T21:55:26.380Z,3.70
2019-03-11T21:57:55.441Z,3.80
2019-03-11T22:00:33.994Z,3.70
2019-03-11T22:02:55.542Z,3.70
2019-03-11T22:05:24.733Z,3.80
2019-03-11T22:07:53.850Z,3.80
2019-03-11T22:10:22.798Z,3.80
2019-03-11T22:12:51.869Z,3.80
2019-03-11T22:15:22.727Z,3.90
2019-03-11T22:17:51.764Z,3.90
2019-03-11T22:20:20.858Z,3.90
2019-03-11T22:22:50.006Z,3.80
2019-03-11T22:25:21.134Z,3.90
2019-03-11T22:27:50.293Z,3.80
2019-03-11T22:30:21.385Z,3.80
2019-03-11T22:32:50.671Z,3.80
2019-03-11T22:35:19.986Z,3.80
2019-03-11T22:37:49.379Z,3.80
2019-03-11T22:40:20.223Z,3.70
2019-03-11T22:42:49.396Z,3.60
2019-03-11T22:45:24.825Z,3.70
2019-03-11T22:47:54.204Z,3.70
2019-03-11T22:50:24.450Z,3.70
2019-03-11T22:52:53.624Z,3.60
2019-03-11T22:55:22.643Z,3.60
2019-03-11T22:57:53.124Z,3.60
2019-03-11T23:00:32.389Z,3.60
2019-03-11T23:03:01.584Z,3.60
2019-03-11T23:05:30.778Z,3.60
2019-03-11T23:07:59.994Z,3.60
2019-03-11T23:10:28.988Z,3.70
2019-03-11T23:12:57.928Z,3.70
2019-03-11T23:15:27.052Z,3.70
2019-03-11T23:17:56.677Z,3.70
2019-03-11T23:20:26.085Z,3.70
2019-03-11T23:22:55.145Z,3.70
2019-03-11T23:25:24.250Z,3.70
2019-03-11T23:27:53.323Z,3.70
2019-03-11T23:30:23.077Z,3.70
2019-03-11T23:32:52.126Z,3.70
2019-03-11T23:35:21.340Z,3.60
2019-03-11T23:37:50.703Z,3.60
2019-03-11T23:40:19.777Z,3.60
2019-03-11T23:42:48.744Z,3.60
2019-03-11T23:45:17.868Z,3.60
2019-03-11T23:47:46.896Z,3.60
2019-03-11T23:50:19.253Z,3.60
2019-03-11T23:52:46.925Z,3.60
2019-03-11T23:55:15.917Z,3.60
2019-03-11T23:57:46.651Z,3.60
